NCAR-RAP Real-Time Weather Data

Output produced by METARs form (17 December 2018  14:45 UTC)
found at http://weather.rap.ucar.edu/surface/
 
RJDC 171200Z VRB02KT 9999 FEW030 BKN050 BKN060 09/02 Q1016
RJDC 171100Z 34003KT 270V040 9999 -RA FEW030 SCT045 BKN050 09/03 Q1016
RJDC 171000Z 36003KT 310V050 9999 FEW030 SCT050 BKN070 09/03 Q1016
RJDC 170900Z 33004KT 260V050 9999 FEW025 SCT045 BKN070 10/02 Q1015
RJDC 170800Z 28008KT 250V320 9999 FEW030 BKN045 BKN/// 10/03 Q1015
RJDC 170700Z 29007KT 250V330 9999 FEW030 SCT045 11/02 Q1014
RJDC 170600Z 28011KT 250V320 9999 FEW030 SCT045 11/01 Q1014
RJDC 170500Z 28012KT 260V320 9999 FEW030 SCT045 12/02 Q1014
RJDC 170400Z 29010KT 250V340 9999 FEW030 BKN045 11/03 Q1014
RJDC 170300Z 28011G22KT 240V320 9999 FEW030 BKN045 11/02 Q1015
RJDC 170200Z 28011KT 240V330 9999 FEW025 SCT045 11/03 Q1015
RJDC 170100Z 29008G19KT 270V340 9999 FEW025 SCT035 BKN045 10/06 Q1016
RJDC 170000Z 27015KT 9999 -SHRA FEW015 BKN035 BKN045 10/06 Q1015
RJDC 162318Z 27015G26KT 240V320 9999 FEW010 SCT030 BKN045 10/07 Q1015 RMK 1CU010 4CU030 7SC045 A2997
RJDC 162300Z 28011KT 250V330 9999 -SHRA FEW015 SCT025 BKN035 09/08 Q1014
RJDC 162200Z 35004KT 9999 -SHRA FEW015 SCT025 BKN035 08/07 Q1014
RJDC 162130Z VRB02KT 9999 -RA FEW015 SCT030 BKN045 08/07 Q1013
RJDC 161200Z VRB01KT 8000 -RA FEW005 SCT040 BKN050 09/09 Q1016
RJDC 161100Z VRB01KT 6000 -SHRA FEW005 SCT020 BKN040 09/09 Q1016
RJDC 161000Z 34003KT 290V020 6000 -SHRA FEW005 SCT015 BKN020 09/09 Q1016
RJDC 160900Z 33004KT 260V020 5000 -SHRA BR FEW005 SCT010 BKN020 09/09 Q1017
RJDC 160800Z 09005KT 9999 -SHRA FEW008 SCT030 BKN040 10/10 Q1016
RJDC 160735Z 06005KT 5000 -SHRA BR FEW007 SCT030 BKN040 10/09 Q1017 RMK 1ST007 3CU030 6CU040 A3003
RJDC 160717Z 03004KT 4000 -SHRA BR FEW008 SCT020 BKN030 10/09 Q1017 RMK 1ST008 3CU020 6CU030 A3004
RJDC 160700Z 07004KT 020V090 9999 -SHRA FEW005 SCT008 BKN030 10/09 Q1017
RJDC 160615Z 11006KT 9999 FEW006 SCT009 BKN060 10/10 Q1017 RMK 1ST006 4ST009 6SC060 A3005
RJDC 160600Z 09007KT 9999 -RA FEW006 BKN008 BKN060 10/10 Q1017
RJDC 160516Z 08006KT 9999 -RA FEW005 BKN006 BKN070 09/09 Q1018 RMK 1ST005 5ST006 6AC070 A3007
RJDC 160500Z 10006KT 9999 -RA FEW008 SCT030 BKN050 09/09 Q1018
RJDC 160400Z 14003KT 5000 -RA BR FEW020 SCT030 BKN045 09/08 Q1019
RJDC 160300Z 15006KT 120V190 8000 -RA FEW025 BKN030 BKN050 09/07 Q1020
RJDC 160200Z 11003KT 070V180 8000 -RA FEW030 SCT040 BKN050 09/08 Q1022
RJDC 160100Z 06002KT 8000 -RA FEW020 SCT035 BKN040 09/07 Q1023
RJDC 160000Z 35003KT 280V030 9999 FEW025 BKN040 BKN100 08/06 Q1023
RJDC 151200Z 05003KT 9999 FEW030 06/03 Q1028
RJDC 151100Z 02002KT 9999 FEW030 06/03 Q1028
RJDC 151000Z 01002KT 9999 FEW030 07/03 Q1028
RJDC 150900Z 06002KT 9999 FEW030 08/02 Q1028
RJDC 150800Z VRB01KT 9999 FEW030 09/02 Q1028
RJDC 150700Z 13002KT 9999 FEW025 11/02 Q1028
RJDC 150600Z 19005KT 150V210 9999 FEW025 SCT050 10/04 Q1028
RJDC 150500Z 17007KT 9999 FEW020 SCT040 11/04 Q1028
RJDC 150400Z 16006KT 9999 SCT030 11/05 Q1029
RJDC 150300Z 15005KT 120V190 9999 SCT030 11/05 Q1030